Terminal Aerodrome Forecast
Issued by NWS Rapid City, SD

Home | Current Version | Previous Version | Text Only | Print | Product List | Glossary On
Versions: 1 2 3 4 5 6 7 8 9 10 11 12 13 14 15 16 17 18 19 20 21
000
FTUS43 KUNR 011100
TAFRAP
TAF
KRAP 011120Z 0112/0212 35015KT P6SM SCT030 OVC040
      TEMPO 0112/0114 6SM -SN SCT010 OVC025
     FM011400 34013G23KT P6SM BKN025 OVC050
     FM012000 36011KT P6SM SCT060
     FM020000 14005KT P6SM SCT250=

USA.gov is the U.S. government's official web portal to all federal, state and local government web resources and services.